Decoded Metar for LDOS (OSIJEK in CROATIA) (IATA:OSI) | Meteo·Mobile Aviation Weather
aviador You're here:

LDOS Decoded Metar

OSIJEK in CROATIA
Report Time2018-09-18 14:00:00
UTC Time2018-09-18 14:18:37
Flight Rules vfr VFR
Wind110° at 05 kt
W.Decomp.*RWY 11: 5.0 kt HW 0.3 kt LCW
W.Rank110° ranks 9
Current wind is below 110° avg. (5.8)
Visibility9999 m
Phenomena:N/A
Clouds:N/A
Expected CloudBase > 6,400 ft AGL from Temp-Dew spread
CeilingNone
Temp27°C (ISA +13)
Dew Point11°C (37% RH)
Heat Index26.7°C
AAT25.5°C
QNH1019 hPa
Density Alt1,719 ft
Elevation292 ft
Report Wrong Elevation
Raw Report
LDOS 181400Z 11005KT CAVOK 27/11 Q1019=

Extra information for LDOS:More info

Metar Taf Metar & Taf Last 4 Metars F.Rules Stats Wind Profile Meteogram Temp Stats Airport Information Weather charts Add Link Nearby VenuesMetar ALERT Operation Metar Decoded Social comments